Sky Queen — 3EHV9 — position and weather

sailwx.info

Track history (hours):
 
Tides and Currents Weather Stations Pressure Air Temp Water Temp Dewpoint Dewpoint Depression Visibility Wind Speed Wind Dir Waves Ship Positions

Sky Queen

Last reported at 2014-Jul-20 12:23 UTC. Time now 2014-Jul-25 23:09 UTC.
Position N 37°40' E 122°15'.

Length 89 m; draft 5 m.

Type: Cargo ship. MMSI: 372259000.

Date/timePositionNaut miles runAvg speedWind from/ knotsBaromVisibWave heightAir tempDewpointWater temp
2014-Jul-20 12:23N 37°40' E 122°15'8 9.8
2014-Jul-20 11:32N 37°39' E 122°04'19 9.4
2014-Jul-20 09:31N 37°39' E 121°40'9 8.9
2014-Jul-20 08:33N 37°38' E 121°29'6 5.3
2014-Jul-20 07:28N 37°35' E 121°24'0 0.0
2014-Jul-20 06:28N 37°35' E 121°24'0 0.0
2014-Jul-20 05:29N 37°35' E 121°24'0 0.0
2014-Jul-20 04:29N 37°35' E 121°24'0 0.0
2014-Jul-20 03:29N 37°35' E 121°24'0 0.0
2014-Jul-20 02:29N 37°35' E 121°24'0 0.0
2014-Jul-20 01:28N 37°35' E 121°24'0 0.0
2014-Jul-20 00:28N 37°35' E 121°24'0 0.0
2014-Jul-19 23:28N 37°35' E 121°24'0 0.0
2014-Jul-19 22:22N 37°35' E 121°24'0 0.0
2014-Jul-19 21:28N 37°35' E 121°24'0 0.0
2014-Jul-19 20:28N 37°35' E 121°24'0 0.0
2014-Jul-19 19:28N 37°35' E 121°24'0 0.0
2014-Jul-19 18:28N 37°35' E 121°24'0 0.0
2014-Jul-19 17:28N 37°35' E 121°24'0 0.0
2014-Jul-19 16:28N 37°35' E 121°24'0 0.0
2014-Jul-19 15:28N 37°35' E 121°24'0 0.0
2014-Jul-19 14:29N 37°35' E 121°24'0 0.0
2014-Jul-19 13:29N 37°35' E 121°24'0 0.0
2014-Jul-19 12:29N 37°35' E 121°24'0 0.0
2014-Jul-19 11:28N 37°35' E 121°24'0 0.0
2014-Jul-19 10:29N 37°35' E 121°24'0 0.0
2014-Jul-19 09:28N 37°35' E 121°24'0 0.0
2014-Jul-19 08:29N 37°35' E 121°24'0 0.0
2014-Jul-19 07:28N 37°35' E 121°24'0 0.0
2014-Jul-19 06:29N 37°35' E 121°24'0 0.0
2014-Jul-19 05:28N 37°35' E 121°24'0 0.0
2014-Jul-19 04:28N 37°35' E 121°24'0 0.0
2014-Jul-19 03:29N 37°35' E 121°24'0 0.0
2014-Jul-19 02:29N 37°35' E 121°24'0 0.0
2014-Jul-19 01:22N 37°35' E 121°24'0 0.0
2014-Jul-19 00:28N 37°35' E 121°24'0 0.0
2014-Jul-18 23:28N 37°35' E 121°24'0 0.0
2014-Jul-18 22:22N 37°35' E 121°24'0 0.0
2014-Jul-18 21:28N 37°35' E 121°24'0 0.0
2014-Jul-18 20:28N 37°35' E 121°24'0 0.0
2014-Jul-18 19:28N 37°35' E 121°24'0 0.0
2014-Jul-18 18:28N 37°35' E 121°24'0 0.0
2014-Jul-18 17:28N 37°35' E 121°24'0 0.0
2014-Jul-18 16:28N 37°35' E 121°24'0 0.0
2014-Jul-18 15:28N 37°35' E 121°24'0 0.5
2014-Jul-18 14:33N 37°35' E 121°24'8 7.5
2014-Jul-18 13:33N 37°39' E 121°32'1 0.8
2014-Jul-18 12:26N 37°40' E 121°32'0 0.0
2014-Jul-18 11:32N 37°40' E 121°32'0 0.0
2014-Jul-18 10:26N 37°40' E 121°32'0 0.0
2014-Jul-18 09:26N 37°40' E 121°32'0 0.1
2014-Jul-18 08:32N 37°40' E 121°32'0 0.0
2014-Jul-18 07:32N 37°40' E 121°32'0 0.0
2014-Jul-18 06:32N 37°40' E 121°32'0 0.0
2014-Jul-18 05:32N 37°40' E 121°32'0 0.0
2014-Jul-18 04:26N 37°40' E 121°32'0 0.0
2014-Jul-18 03:26N 37°40' E 121°32'0 0.0
2014-Jul-18 02:32N 37°40' E 121°32'0 0.0
2014-Jul-18 01:26N 37°40' E 121°32'0 0.1
2014-Jul-18 00:32N 37°40' E 121°32'0 0.0
2014-Jul-17 23:32N 37°40' E 121°32'0 0.0
2014-Jul-17 22:32N 37°40' E 121°32'0 0.0
2014-Jul-17 21:26N 37°40' E 121°32'0 0.0
2014-Jul-17 20:32N 37°40' E 121°32'0 0.1
2014-Jul-17 19:26N 37°40' E 121°32'0 0.0
2014-Jul-17 18:32N 37°40' E 121°32'0 0.0
2014-Jul-17 17:20N 37°40' E 121°32'0 0.1
2014-Jul-17 16:32N 37°40' E 121°32'0 0.0
2014-Jul-17 15:32N 37°40' E 121°32'0 0.0
2014-Jul-17 14:26N 37°40' E 121°32'0 0.0
2014-Jul-17 13:32N 37°40' E 121°32'0 0.0
2014-Jul-17 12:32N 37°40' E 121°32'0 0.0
2014-Jul-17 11:26N 37°40' E 121°32'0 0.1
2014-Jul-17 10:32N 37°40' E 121°32'0 0.0
2014-Jul-17 09:32N 37°40' E 121°32'0 0.0
2014-Jul-17 08:32N 37°40' E 121°32'0 0.0
2014-Jul-17 07:20N 37°40' E 121°32'0 0.0
2014-Jul-17 06:32N 37°40' E 121°32'0 0.0
2014-Jul-17 04:32N 37°40' E 121°32'0 0.0
2014-Jul-17 03:32N 37°40' E 121°32'0 0.0
2014-Jul-17 02:32N 37°40' E 121°32'0 0.0
2014-Jul-17 01:26N 37°40' E 121°32'0 0.1
2014-Jul-17 00:32N 37°40' E 121°32'0 0.1
2014-Jul-16 23:26N 37°40' E 121°32'0 0.0
2014-Jul-16 22:32N 37°40' E 121°32'0 0.0
2014-Jul-16 21:26N 37°40' E 121°32'0 0.0
2014-Jul-16 20:32N 37°40' E 121°32'0 0.0
2014-Jul-16 19:26N 37°40' E 121°32'0 0.0
2014-Jul-16 18:32N 37°40' E 121°32'0 0.0
2014-Jul-16 17:26N 37°40' E 121°32'0 0.0
2014-Jul-16 16:32N 37°40' E 121°32'0 0.0
2014-Jul-16 15:32N 37°40' E 121°32'0 0.0
2014-Jul-16 14:32N 37°40' E 121°32'0 0.0
2014-Jul-16 13:32N 37°40' E 121°32'0 0.0
2014-Jul-16 12:32N 37°40' E 121°32'0 0.0
2014-Jul-16 11:32N 37°40' E 121°32'0 0.0
2014-Jul-16 10:32N 37°40' E 121°32'0 0.0
2014-Jul-16 09:32N 37°40' E 121°32'0 0.0
2014-Jul-16 07:32N 37°40' E 121°32'0 0.0
2014-Jul-16 06:32N 37°40' E 121°32'0 0.0
2014-Jul-16 05:26N 37°40' E 121°32'0 0.0
2014-Jul-16 04:32N 37°40' E 121°32'0 0.0
2014-Jul-16 03:32N 37°40' E 121°32'0 0.0
2014-Jul-16 02:32N 37°40' E 121°32'0 0.0
2014-Jul-16 01:33N 37°40' E 121°32'1 0.8
2014-Jul-16 00:33N 37°39' E 121°33'20 9.9
2014-Jul-15 22:31N 37°40' E 121°59'9 9.8
2014-Jul-15 21:33N 37°40' E 122°11'9 9.3
2014-Jul-15 20:33N 37°41' E 122°22'  
2014-Jul-13 12:33N 36°39' E 125°12'8 7.8
2014-Jul-13 11:32N 36°37' E 125°03'9 8.1
2014-Jul-13 10:25N 36°33' E 124°52'8 8.5
2014-Jul-13 09:31N 36°31' E 124°43'56 9.3
2014-Jul-13 03:31N 36°11' E 123°39'9 9.1
2014-Jul-13 02:31N 36°07' E 123°28'180 9.0
2014-Jul-12 06:33N 35°15' E 119°56'8 8.3
2014-Jul-12 05:33N 35°15' E 119°46'9 8.6
2014-Jul-12 04:33N 35°19' E 119°37'4 4.0
2014-Jul-12 03:32N 35°21' E 119°32'0 0.0
2014-Jul-12 02:32N 35°21' E 119°32'0 0.0
2014-Jul-12 01:32N 35°21' E 119°32'0 0.0
2014-Jul-12 00:32N 35°21' E 119°32'0 0.0
2014-Jul-11 23:32N 35°21' E 119°32'0 0.0
2014-Jul-11 22:32N 35°21' E 119°32'0 0.0
2014-Jul-11 21:20N 35°21' E 119°32'0 0.0
2014-Jul-11 20:32N 35°21' E 119°32'0 0.0
2014-Jul-11 19:32N 35°21' E 119°32'0 0.0
2014-Jul-11 18:32N 35°21' E 119°32'0 0.0
2014-Jul-11 17:26N 35°21' E 119°32'0 0.0
2014-Jul-11 16:32N 35°21' E 119°32'0 0.0
2014-Jul-11 15:32N 35°21' E 119°32'0 0.0
2014-Jul-11 14:14N 35°21' E 119°32'0 0.0
2014-Jul-11 13:20N 35°21' E 119°32'0 0.0
2014-Jul-11 12:32N 35°21' E 119°32'0 0.0
2014-Jul-11 11:32N 35°21' E 119°32'0 0.0
2014-Jul-11 10:32N 35°21' E 119°32'0 0.0
2014-Jul-11 09:31N 35°21' E 119°32'0 0.0
2014-Jul-11 08:19N 35°21' E 119°32'0 0.0
2014-Jul-11 07:31N 35°21' E 119°32'0 0.0
2014-Jul-11 06:31N 35°21' E 119°32'0 0.0
2014-Jul-11 05:19N 35°21' E 119°32'0 0.0
2014-Jul-11 03:31N 35°21' E 119°32'0 0.0
2014-Jul-11 02:19N 35°21' E 119°32'0 0.0
2014-Jul-11 01:31N 35°21' E 119°32'0 0.0
2014-Jul-11 00:31N 35°21' E 119°32'0 0.0
2014-Jul-10 23:31N 35°21' E 119°32'0 0.0
2014-Jul-10 22:32N 35°21' E 119°32'0 0.0
2014-Jul-10 21:32N 35°21' E 119°32'0 0.0
2014-Jul-10 20:32N 35°21' E 119°32'0 0.0
2014-Jul-10 19:32N 35°21' E 119°32'0 0.0
2014-Jul-10 18:32N 35°21' E 119°32'0 0.0
2014-Jul-10 17:26N 35°21' E 119°32'0 0.0
2014-Jul-10 16:32N 35°21' E 119°32'0 0.0
2014-Jul-10 15:32N 35°21' E 119°32'0 0.0
2014-Jul-10 14:14N 35°21' E 119°32'0 0.0
2014-Jul-10 13:32N 35°21' E 119°32'0 0.0
2014-Jul-10 12:26N 35°21' E 119°32'  
Track history (hours):
 
Tides and Currents Weather Stations Pressure Air Temp Water Temp Dewpoint Dewpoint Depression Visibility Wind Speed Wind Dir Waves Ship Positions

Sky Queen

Last reported at 2014-Jul-20 12:23 UTC. Time now 2014-Jul-25 23:09 UTC.
Position N 37°40' E 122°15'.

Length 89 m; draft 5 m.

Type: Cargo ship. MMSI: 372259000.

Date/timePositionNaut miles runAvg speedWind from/ knotsBaromVisibWave heightAir tempDewpointWater temp
2014-Jul-20 12:23N 37°40' E 122°15'8 9.8
2014-Jul-20 11:32N 37°39' E 122°04'19 9.4
2014-Jul-20 09:31N 37°39' E 121°40'9 8.9
2014-Jul-20 08:33N 37°38' E 121°29'6 5.3
2014-Jul-20 07:28N 37°35' E 121°24'0 0.0
2014-Jul-20 06:28N 37°35' E 121°24'0 0.0
2014-Jul-20 05:29N 37°35' E 121°24'0 0.0
2014-Jul-20 04:29N 37°35' E 121°24'0 0.0
2014-Jul-20 03:29N 37°35' E 121°24'0 0.0
2014-Jul-20 02:29N 37°35' E 121°24'0 0.0
2014-Jul-20 01:28N 37°35' E 121°24'0 0.0
2014-Jul-20 00:28N 37°35' E 121°24'0 0.0
2014-Jul-19 23:28N 37°35' E 121°24'0 0.0
2014-Jul-19 22:22N 37°35' E 121°24'0 0.0
2014-Jul-19 21:28N 37°35' E 121°24'0 0.0
2014-Jul-19 20:28N 37°35' E 121°24'0 0.0
2014-Jul-19 19:28N 37°35' E 121°24'0 0.0
2014-Jul-19 18:28N 37°35' E 121°24'0 0.0
2014-Jul-19 17:28N 37°35' E 121°24'0 0.0
2014-Jul-19 16:28N 37°35' E 121°24'0 0.0
2014-Jul-19 15:28N 37°35' E 121°24'0 0.0
2014-Jul-19 14:29N 37°35' E 121°24'0 0.0
2014-Jul-19 13:29N 37°35' E 121°24'0 0.0
2014-Jul-19 12:29N 37°35' E 121°24'0 0.0
2014-Jul-19 11:28N 37°35' E 121°24'0 0.0
2014-Jul-19 10:29N 37°35' E 121°24'0 0.0
2014-Jul-19 09:28N 37°35' E 121°24'0 0.0
2014-Jul-19 08:29N 37°35' E 121°24'0 0.0
2014-Jul-19 07:28N 37°35' E 121°24'0 0.0
2014-Jul-19 06:29N 37°35' E 121°24'0 0.0
2014-Jul-19 05:28N 37°35' E 121°24'0 0.0
2014-Jul-19 04:28N 37°35' E 121°24'0 0.0
2014-Jul-19 03:29N 37°35' E 121°24'0 0.0
2014-Jul-19 02:29N 37°35' E 121°24'0 0.0
2014-Jul-19 01:22N 37°35' E 121°24'0 0.0
2014-Jul-19 00:28N 37°35' E 121°24'0 0.0
2014-Jul-18 23:28N 37°35' E 121°24'0 0.0
2014-Jul-18 22:22N 37°35' E 121°24'0 0.0
2014-Jul-18 21:28N 37°35' E 121°24'0 0.0
2014-Jul-18 20:28N 37°35' E 121°24'0 0.0
2014-Jul-18 19:28N 37°35' E 121°24'0 0.0
2014-Jul-18 18:28N 37°35' E 121°24'0 0.0
2014-Jul-18 17:28N 37°35' E 121°24'0 0.0
2014-Jul-18 16:28N 37°35' E 121°24'0 0.0
2014-Jul-18 15:28N 37°35' E 121°24'0 0.5
2014-Jul-18 14:33N 37°35' E 121°24'8 7.5
2014-Jul-18 13:33N 37°39' E 121°32'1 0.8
2014-Jul-18 12:26N 37°40' E 121°32'0 0.0
2014-Jul-18 11:32N 37°40' E 121°32'0 0.0
2014-Jul-18 10:26N 37°40' E 121°32'0 0.0
2014-Jul-18 09:26N 37°40' E 121°32'0 0.1
2014-Jul-18 08:32N 37°40' E 121°32'0 0.0
2014-Jul-18 07:32N 37°40' E 121°32'0 0.0
2014-Jul-18 06:32N 37°40' E 121°32'0 0.0
2014-Jul-18 05:32N 37°40' E 121°32'0 0.0
2014-Jul-18 04:26N 37°40' E 121°32'0 0.0
2014-Jul-18 03:26N 37°40' E 121°32'0 0.0
2014-Jul-18 02:32N 37°40' E 121°32'0 0.0
2014-Jul-18 01:26N 37°40' E 121°32'0 0.1
2014-Jul-18 00:32N 37°40' E 121°32'0 0.0
2014-Jul-17 23:32N 37°40' E 121°32'0 0.0
2014-Jul-17 22:32N 37°40' E 121°32'0 0.0
2014-Jul-17 21:26N 37°40' E 121°32'0 0.0
2014-Jul-17 20:32N 37°40' E 121°32'0 0.1
2014-Jul-17 19:26N 37°40' E 121°32'0 0.0
2014-Jul-17 18:32N 37°40' E 121°32'0 0.0
2014-Jul-17 17:20N 37°40' E 121°32'0 0.1
2014-Jul-17 16:32N 37°40' E 121°32'0 0.0
2014-Jul-17 15:32N 37°40' E 121°32'0 0.0
2014-Jul-17 14:26N 37°40' E 121°32'0 0.0
2014-Jul-17 13:32N 37°40' E 121°32'0 0.0
2014-Jul-17 12:32N 37°40' E 121°32'0 0.0
2014-Jul-17 11:26N 37°40' E 121°32'0 0.1
2014-Jul-17 10:32N 37°40' E 121°32'0 0.0
2014-Jul-17 09:32N 37°40' E 121°32'0 0.0
2014-Jul-17 08:32N 37°40' E 121°32'0 0.0
2014-Jul-17 07:20N 37°40' E 121°32'0 0.0
2014-Jul-17 06:32N 37°40' E 121°32'0 0.0
2014-Jul-17 04:32N 37°40' E 121°32'0 0.0
2014-Jul-17 03:32N 37°40' E 121°32'0 0.0
2014-Jul-17 02:32N 37°40' E 121°32'0 0.0
2014-Jul-17 01:26N 37°40' E 121°32'0 0.1
2014-Jul-17 00:32N 37°40' E 121°32'0 0.1
2014-Jul-16 23:26N 37°40' E 121°32'0 0.0
2014-Jul-16 22:32N 37°40' E 121°32'0 0.0
2014-Jul-16 21:26N 37°40' E 121°32'0 0.0
2014-Jul-16 20:32N 37°40' E 121°32'0 0.0
2014-Jul-16 19:26N 37°40' E 121°32'0 0.0
2014-Jul-16 18:32N 37°40' E 121°32'0 0.0
2014-Jul-16 17:26N 37°40' E 121°32'0 0.0
2014-Jul-16 16:32N 37°40' E 121°32'0 0.0
2014-Jul-16 15:32N 37°40' E 121°32'0 0.0
2014-Jul-16 14:32N 37°40' E 121°32'0 0.0
2014-Jul-16 13:32N 37°40' E 121°32'0 0.0
2014-Jul-16 12:32N 37°40' E 121°32'0 0.0
2014-Jul-16 11:32N 37°40' E 121°32'0 0.0
2014-Jul-16 10:32N 37°40' E 121°32'0 0.0
2014-Jul-16 09:32N 37°40' E 121°32'0 0.0
2014-Jul-16 07:32N 37°40' E 121°32'0 0.0
2014-Jul-16 06:32N 37°40' E 121°32'0 0.0
2014-Jul-16 05:26N 37°40' E 121°32'0 0.0
2014-Jul-16 04:32N 37°40' E 121°32'0 0.0
2014-Jul-16 03:32N 37°40' E 121°32'0 0.0
2014-Jul-16 02:32N 37°40' E 121°32'0 0.0
2014-Jul-16 01:33N 37°40' E 121°32'1 0.8
2014-Jul-16 00:33N 37°39' E 121°33'20 9.9
2014-Jul-15 22:31N 37°40' E 121°59'9 9.8
2014-Jul-15 21:33N 37°40' E 122°11'9 9.3
2014-Jul-15 20:33N 37°41' E 122°22'  
2014-Jul-13 12:33N 36°39' E 125°12'8 7.8
2014-Jul-13 11:32N 36°37' E 125°03'9 8.1
2014-Jul-13 10:25N 36°33' E 124°52'8 8.5
2014-Jul-13 09:31N 36°31' E 124°43'56 9.3
2014-Jul-13 03:31N 36°11' E 123°39'9 9.1
2014-Jul-13 02:31N 36°07' E 123°28'180 9.0
2014-Jul-12 06:33N 35°15' E 119°56'8 8.3
2014-Jul-12 05:33N 35°15' E 119°46'9 8.6
2014-Jul-12 04:33N 35°19' E 119°37'4 4.0
2014-Jul-12 03:32N 35°21' E 119°32'0 0.0
2014-Jul-12 02:32N 35°21' E 119°32'0 0.0
2014-Jul-12 01:32N 35°21' E 119°32'0 0.0
2014-Jul-12 00:32N 35°21' E 119°32'0 0.0
2014-Jul-11 23:32N 35°21' E 119°32'0 0.0
2014-Jul-11 22:32N 35°21' E 119°32'0 0.0
2014-Jul-11 21:20N 35°21' E 119°32'0 0.0
2014-Jul-11 20:32N 35°21' E 119°32'0 0.0
2014-Jul-11 19:32N 35°21' E 119°32'0 0.0
2014-Jul-11 18:32N 35°21' E 119°32'0 0.0
2014-Jul-11 17:26N 35°21' E 119°32'0 0.0
2014-Jul-11 16:32N 35°21' E 119°32'0 0.0
2014-Jul-11 15:32N 35°21' E 119°32'0 0.0
2014-Jul-11 14:14N 35°21' E 119°32'0 0.0
2014-Jul-11 13:20N 35°21' E 119°32'0 0.0
2014-Jul-11 12:32N 35°21' E 119°32'0 0.0
2014-Jul-11 11:32N 35°21' E 119°32'0 0.0
2014-Jul-11 10:32N 35°21' E 119°32'0 0.0
2014-Jul-11 09:31N 35°21' E 119°32'0 0.0
2014-Jul-11 08:19N 35°21' E 119°32'0 0.0
2014-Jul-11 07:31N 35°21' E 119°32'0 0.0
2014-Jul-11 06:31N 35°21' E 119°32'0 0.0
2014-Jul-11 05:19N 35°21' E 119°32'0 0.0
2014-Jul-11 03:31N 35°21' E 119°32'0 0.0
2014-Jul-11 02:19N 35°21' E 119°32'0 0.0
2014-Jul-11 01:31N 35°21' E 119°32'0 0.0
2014-Jul-11 00:31N 35°21' E 119°32'0 0.0
2014-Jul-10 23:31N 35°21' E 119°32'0 0.0
2014-Jul-10 22:32N 35°21' E 119°32'0 0.0
2014-Jul-10 21:32N 35°21' E 119°32'0 0.0
2014-Jul-10 20:32N 35°21' E 119°32'0 0.0
2014-Jul-10 19:32N 35°21' E 119°32'0 0.0
2014-Jul-10 18:32N 35°21' E 119°32'0 0.0
2014-Jul-10 17:26N 35°21' E 119°32'0 0.0
2014-Jul-10 16:32N 35°21' E 119°32'0 0.0
2014-Jul-10 15:32N 35°21' E 119°32'0 0.0
2014-Jul-10 14:14N 35°21' E 119°32'0 0.0
2014-Jul-10 13:32N 35°21' E 119°32'0 0.0
2014-Jul-10 12:26N 35°21' E 119°32'  

Dump ship's entire track history